Time;durP1;ratioP1;P1;durP2;ratioP2;P2;SDS_P1;SDS_P2;PMS_P1;PMS_P2;Temp;Humidity;BMP_temperature;BMP_pressure;BME280_temperature;BME280_humidity;BME280_pressure;Samples;Min_cycle;Max_cycle;Signal;HPM_P1;HPM_P2
2022/01/13 00:02:42;;;;;;;21.07;11.93;;;11.00;94.30;;;;;;10261996;29;20234;-86
2022/01/13 00:07:45;;;;;;;24.47;12.67;;;11.70;93.90;;;;;;10262049;29;20195;-85
2022/01/13 00:12:50;;;;;;;19.37;11.13;;;11.90;93.00;;;;;;10260983;29;20191;-86
2022/01/13 00:28:16;;;;;;;19.60;11.33;;;12.10;92.00;;;;;;10244804;29;20210;-85
2022/01/13 00:33:23;;;;;;;20.43;10.67;;;12.00;91.90;;;;;;10244988;29;20235;-86
2022/01/13 00:38:30;;;;;;;18.60;10.13;;;12.20;91.60;;;;;;10246979;29;20187;-85
2022/01/13 00:43:38;;;;;;;18.33;10.07;;;12.20;91.20;;;;;;10247498;29;20196;-86
2022/01/13 00:48:41;;;;;;;16.83;9.80;;;12.20;91.10;;;;;;10263188;28;20215;-85
2022/01/13 00:53:43;;;;;;;15.83;9.93;;;12.20;90.90;;;;;;10263703;29;20187;-84
2022/01/13 00:58:46;;;;;;;15.60;10.13;;;12.30;90.60;;;;;;10264291;29;20199;-85
2022/01/13 01:03:48;;;;;;;21.17;10.27;;;12.30;90.50;;;;;;10270447;29;20191;-85
2022/01/13 01:08:51;;;;;;;15.77;9.23;;;12.20;90.50;;;;;;10269458;29;20215;-85
2022/01/13 01:13:55;;;;;;;17.10;9.50;;;12.20;90.30;;;;;;10269901;29;20215;-85
2022/01/13 01:19:06;;;;;;;19.30;11.23;;;12.20;90.20;;;;;;10253887;29;20191;-85
2022/01/13 01:29:36;;;;;;;14.63;8.73;;;12.30;90.00;;;;;;10223071;29;20286;-85
2022/01/13 01:39:42;;;;;;;15.00;8.63;;;12.30;89.50;;;;;;10219682;29;20208;-85
2022/01/13 01:44:48;;;;;;;15.20;8.97;;;12.20;89.30;;;;;;10220009;29;20219;-85
2022/01/13 01:49:55;;;;;;;18.27;9.90;;;12.20;89.40;;;;;;10218971;29;20259;-85
2022/01/13 01:54:57;;;;;;;12.43;8.60;;;11.90;89.70;;;;;;10218639;29;20231;-85
2022/01/13 02:00:00;;;;;;;15.63;9.13;;;12.20;88.90;;;;;;10217621;29;20344;-85
2022/01/13 02:05:03;;;;;;;15.13;9.03;;;12.20;88.20;;;;;;10218548;29;20210;-85
2022/01/13 02:10:07;;;;;;;12.80;8.13;;;12.10;89.00;;;;;;10198326;29;20260;-86
2022/01/13 02:20:20;;;;;;;13.13;7.90;;;12.30;88.10;;;;;;10212657;29;20225;-85
2022/01/13 02:25:22;;;;;;;16.43;8.43;;;12.30;87.70;;;;;;10193695;29;20207;-85
2022/01/13 02:30:25;;;;;;;18.17;9.20;;;12.30;87.70;;;;;;10193845;29;21014;-85
2022/01/13 02:35:34;;;;;;;16.77;9.13;;;12.30;87.40;;;;;;10211088;29;20239;-85
2022/01/13 02:40:37;;;;;;;14.07;8.83;;;12.20;87.00;;;;;;10193346;29;20274;-85
2022/01/13 02:45:52;;;;;;;19.07;8.70;;;12.30;87.10;;;;;;10210188;29;20279;-85
2022/01/13 02:50:54;;;;;;;16.97;8.70;;;12.30;87.00;;;;;;10193480;29;20258;-86
2022/01/13 02:56:02;;;;;;;13.97;8.47;;;12.20;87.00;;;;;;10209543;29;20302;-86
2022/01/13 03:01:05;;;;;;;15.57;8.17;;;12.30;86.60;;;;;;10209560;29;20239;-85
2022/01/13 03:06:10;;;;;;;14.40;9.17;;;12.30;86.50;;;;;;10209208;29;20290;-85
2022/01/13 03:11:14;;;;;;;13.83;8.67;;;12.30;86.40;;;;;;10209365;29;20402;-85
2022/01/13 03:16:17;;;;;;;13.13;8.40;;;12.30;86.30;;;;;;10209347;29;20239;-86
2022/01/13 03:21:24;;;;;;;13.70;8.13;;;12.30;86.00;;;;;;10191303;29;20267;-86
2022/01/13 03:26:26;;;;;;;12.10;8.83;;;12.20;86.10;;;;;;10208747;29;20632;-85
2022/01/13 03:31:29;;;;;;;13.90;8.10;;;12.10;86.30;;;;;;10208578;29;20263;-86
2022/01/13 03:36:32;;;;;;;11.43;7.50;;;12.20;86.10;;;;;;10191711;29;20230;-86
2022/01/13 03:41:36;;;;;;;16.00;8.93;;;12.30;85.80;;;;;;10207166;29;20298;-86
2022/01/13 03:46:39;;;;;;;15.43;8.80;;;12.20;85.80;;;;;;10208236;29;20237;-86
2022/01/13 03:52:00;;;;;;;17.77;10.67;;;12.20;85.80;;;;;;10190790;29;20258;-86
2022/01/13 03:57:40;;;;;;;13.63;8.00;;;12.30;85.60;;;;;;10190609;29;20255;-86
2022/01/13 04:02:43;;;;;;;14.90;8.63;;;12.30;85.30;;;;;;10206720;29;20234;-86
2022/01/13 04:07:45;;;;;;;15.90;8.00;;;12.20;82.70;;;;;;10207815;29;20683;-86
2022/01/13 04:12:48;;;;;;;13.40;8.10;;;12.20;85.60;;;;;;10207329;29;20652;-86
2022/01/13 04:17:50;;;;;;;15.27;9.27;;;12.30;85.30;;;;;;10207456;29;20231;-86
2022/01/13 04:22:53;;;;;;;15.53;8.77;;;12.30;85.30;;;;;;10207646;29;20906;-86
2022/01/13 04:28:01;;;;;;;13.20;8.43;;;12.20;85.30;;;;;;10189988;29;20597;-87
2022/01/13 04:33:04;;;;;;;13.53;8.53;;;12.30;85.00;;;;;;10208347;29;20263;-87
2022/01/13 04:38:07;;;;;;;14.83;8.50;;;12.30;84.90;;;;;;10214568;29;20223;-87
2022/01/13 04:43:11;;;;;;;13.57;8.73;;;12.30;84.70;;;;;;10214931;29;20284;-86
2022/01/13 04:48:14;;;;;;;14.27;8.10;;;12.20;84.80;;;;;;10215192;29;20242;-86
2022/01/13 04:53:17;;;;;;;14.63;7.83;;;12.20;85.00;;;;;;10197427;29;20255;-86
2022/01/13 04:58:21;;;;;;;17.50;9.30;;;12.30;84.60;;;;;;10214595;29;20258;-86
2022/01/13 05:03:24;;;;;;;17.67;8.93;;;12.30;84.70;;;;;;10197642;29;20242;-86
2022/01/13 05:08:26;;;;;;;14.03;8.27;;;12.20;84.60;;;;;;10213280;29;20620;-86
2022/01/13 05:13:29;;;;;;;17.07;9.00;;;12.20;84.90;;;;;;10179971;29;20246;-87
2022/01/13 05:19:12;;;;;;;16.20;8.40;;;12.00;85.20;;;;;;10196016;29;20684;-86
2022/01/13 05:24:00;;;;;;;12.23;8.07;;;12.00;85.30;;;;;;10210505;29;20254;-86
2022/01/13 05:29:03;;;;;;;17.80;9.30;;;12.10;85.20;;;;;;10195884;29;20715;-86
2022/01/13 05:34:05;;;;;;;12.53;8.17;;;12.10;85.70;;;;;;10212431;29;20286;-86
2022/01/13 05:39:08;;;;;;;14.73;7.80;;;12.00;85.30;;;;;;10194502;29;20302;-86
2022/01/13 05:44:11;;;;;;;13.50;8.40;;;12.00;85.30;;;;;;10193639;29;20246;-86
2022/01/13 05:49:13;;;;;;;27.33;14.87;;;12.20;85.10;;;;;;10212684;29;20259;-91
2022/01/13 05:54:16;;;;;;;27.03;14.10;;;9.20;91.00;;;;;;10197137;29;20600;-91
2022/01/13 05:59:21;;;;;;;25.50;12.77;;;9.70;88.20;;;;;;10214551;29;20270;-92
2022/01/13 06:04:24;;;;;;;23.10;13.93;;;11.00;83.60;;;;;;10209339;29;20251;-91
2022/01/13 06:09:26;;;;;;;24.60;12.73;;;11.40;81.20;;;;;;10196942;29;20716;-91
2022/01/13 06:14:29;;;;;;;25.90;12.87;;;11.70;80.60;;;;;;10214157;29;20215;-92
2022/01/13 06:19:32;;;;;;;27.67;12.57;;;11.90;80.20;;;;;;10212813;29;20243;-91
2022/01/13 06:24:34;;;;;;;20.30;11.57;;;11.90;80.10;;;;;;10196010;29;20208;-92
2022/01/13 06:29:37;;;;;;;21.10;10.83;;;12.00;80.10;;;;;;10195668;29;20275;-91
2022/01/13 06:34:39;;;;;;;22.83;11.27;;;12.00;80.20;;;;;;10211159;29;20203;-91
2022/01/13 06:39:42;;;;;;;24.77;11.70;;;11.80;80.50;;;;;;10212062;29;20246;-92
2022/01/13 06:44:45;;;;;;;20.73;10.27;;;11.90;81.10;;;;;;10211060;29;20710;-91
2022/01/13 06:49:48;;;;;;;20.27;10.07;;;11.70;81.30;;;;;;10194830;29;20728;-92
2022/01/13 06:54:52;;;;;;;21.37;10.83;;;11.80;81.50;;;;;;10211829;29;20270;-91
2022/01/13 06:59:54;;;;;;;18.60;10.53;;;11.90;81.30;;;;;;10194769;29;20270;-92
2022/01/13 07:04:57;;;;;;;18.30;9.00;;;12.00;81.10;;;;;;10209896;29;20231;-92
2022/01/13 07:09:59;;;;;;;23.53;10.37;;;11.90;81.80;;;;;;10169838;29;20887;-92
2022/01/13 07:15:03;;;;;;;24.07;9.83;;;12.00;81.00;;;;;;10203757;29;20653;-92
2022/01/13 07:20:06;;;;;;;16.80;10.43;;;12.00;81.20;;;;;;10177879;29;20215;-92
2022/01/13 07:25:09;;;;;;;18.03;9.90;;;11.90;81.10;;;;;;10192890;29;20242;-93
2022/01/13 07:30:13;;;;;;;16.73;9.20;;;12.00;81.30;;;;;;10208536;29;20220;-92
2022/01/13 07:35:16;;;;;;;16.67;9.43;;;12.10;81.10;;;;;;10174399;29;20207;-93
2022/01/13 07:40:18;;;;;;;18.20;9.13;;;12.10;81.00;;;;;;10180565;29;20211;-94
2022/01/13 07:45:21;;;;;;;14.43;8.40;;;12.10;80.90;;;;;;10180180;29;20781;-92
2022/01/13 07:50:23;;;;;;;13.97;8.93;;;12.20;80.80;;;;;;10183066;29;20306;-92
2022/01/13 07:55:27;;;;;;;14.90;8.73;;;12.10;80.80;;;;;;10209704;29;20271;-93
2022/01/13 08:00:29;;;;;;;13.33;8.63;;;12.20;81.30;;;;;;10191848;29;20215;-92
2022/01/13 08:05:32;;;;;;;14.27;8.33;;;12.20;81.00;;;;;;10176545;29;20223;-92
2022/01/13 08:10:34;;;;;;;16.73;9.13;;;12.20;80.50;;;;;;10199110;29;20262;-92
2022/01/13 08:15:36;;;;;;;18.70;10.33;;;12.10;80.90;;;;;;10217392;29;20278;-93
2022/01/13 08:20:39;;;;;;;14.37;8.50;;;12.10;81.10;;;;;;10185691;29;20278;-93
2022/01/13 08:25:42;;;;;;;15.40;9.33;;;11.80;81.70;;;;;;10203646;29;20218;-93
2022/01/13 08:30:44;;;;;;;17.67;9.27;;;11.90;81.40;;;;;;10233098;29;20215;-93
2022/01/13 08:35:47;;;;;;;13.10;8.20;;;11.90;81.80;;;;;;10205555;29;20258;-93
2022/01/13 08:40:59;;;;;;;17.80;8.73;;;12.10;81.00;;;;;;10237743;28;20555;-93
2022/01/13 08:46:03;;;;;;;13.97;8.30;;;12.20;80.80;;;;;;10230516;29;20247;-93
2022/01/13 08:51:06;;;;;;;13.00;8.73;;;12.20;80.50;;;;;;10238454;29;20229;-93
2022/01/13 08:56:08;;;;;;;13.13;7.73;;;12.10;80.60;;;;;;10255878;29;20261;-91
2022/01/13 09:01:11;;;;;;;13.37;8.37;;;12.10;80.90;;;;;;10238222;29;20249;-92
2022/01/13 09:06:14;;;;;;;16.57;8.97;;;12.10;81.10;;;;;;10199253;29;20625;-93
2022/01/13 09:11:16;;;;;;;13.77;8.13;;;11.90;81.50;;;;;;10215743;29;20666;-93
2022/01/13 09:16:19;;;;;;;13.70;8.57;;;12.10;80.90;;;;;;10198730;29;20742;-93
2022/01/13 09:21:28;;;;;;;15.20;9.27;;;12.00;81.30;;;;;;10196931;29;20210;-92
2022/01/13 09:26:31;;;;;;;11.53;7.60;;;12.10;80.90;;;;;;10214521;29;20223;-92
2022/01/13 09:31:38;;;;;;;12.67;8.10;;;12.10;80.90;;;;;;10215275;29;20641;-93
2022/01/13 09:36:41;;;;;;;25.77;13.27;;;12.10;80.80;;;;;;10215665;29;20215;-93
2022/01/13 09:41:45;;;;;;;22.57;12.63;;;10.40;83.50;;;;;;10201270;29;20247;-93
2022/01/13 09:46:48;;;;;;;19.87;11.27;;;10.20;86.10;;;;;;10198495;29;20214;-93
2022/01/13 09:51:51;;;;;;;20.83;11.23;;;11.20;82.50;;;;;;10198909;29;20286;-94
2022/01/13 09:56:54;;;;;;;26.57;14.03;;;11.50;81.40;;;;;;10216874;29;20227;-94
2022/01/13 10:01:56;;;;;;;22.67;12.00;;;10.00;87.50;;;;;;10176379;29;20677;-94
2022/01/13 10:06:59;;;;;;;20.07;10.93;;;10.50;91.60;;;;;;10213895;29;20258;-93
2022/01/13 10:12:08;;;;;;;16.97;11.57;;;11.10;94.70;;;;;;10214094;29;20320;-94
2022/01/13 10:17:16;;;;;;;17.50;10.37;;;11.40;96.70;;;;;;10198356;29;20235;-94
2022/01/13 10:22:24;;;;;;;16.97;9.73;;;11.80;99.20;;;;;;10181221;29;20274;-95
2022/01/13 10:27:35;;;;;;;17.97;10.47;;;11.80;99.90;;;;;;10196367;29;20621;-94
2022/01/13 10:32:39;;;;;;;17.07;9.97;;;12.10;99.90;;;;;;10196086;29;20282;-93
2022/01/13 10:37:58;;;;;;;14.43;8.97;;;12.30;99.90;;;;;;10213392;29;20203;-92
2022/01/13 10:48:08;;;;;;;14.23;9.43;;;12.40;99.90;;;;;;10212995;29;20676;-93
2022/01/13 10:53:49;;;;;;;14.37;8.80;;;12.40;99.90;;;;;;10195633;29;20705;-94
2022/01/13 10:58:53;;;;;;;16.23;9.13;;;12.40;99.90;;;;;;10159597;29;20244;-93
2022/01/13 11:03:56;;;;;;;15.37;10.13;;;12.40;99.90;;;;;;10138618;29;20207;-94
2022/01/13 11:09:00;;;;;;;13.67;8.07;;;12.60;99.90;;;;;;10135102;29;20515;-94
2022/01/13 11:14:09;;;;;;;12.33;7.57;;;12.50;99.90;;;;;;10137349;29;20263;-93
2022/01/13 11:19:15;;;;;;;10.30;6.93;;;12.60;99.90;;;;;;10159215;29;20205;-93
2022/01/13 11:24:18;;;;;;;14.00;8.23;;;12.60;99.90;;;;;;10154195;29;20275;-94
2022/01/13 11:29:25;;;;;;;10.77;7.50;;;12.10;96.60;;;;;;10154809;29;20655;-94
2022/01/13 11:34:28;;;;;;;12.90;7.73;;;12.70;99.90;;;;;;10140530;29;20252;-94
2022/01/13 11:39:43;;;;;;;11.23;7.40;;;12.70;99.90;;;;;;10155983;29;20616;-94
2022/01/13 11:45:09;;;;;;;10.30;6.97;;;12.90;99.90;;;;;;10168227;29;20540;-93
2022/01/13 11:50:30;;;;;;;11.90;7.23;;;12.90;99.90;;;;;;10165041;29;20229;-93
2022/01/13 11:55:41;;;;;;;11.77;7.40;;;12.70;99.90;;;;;;10151969;29;20230;-93
2022/01/13 12:01:15;;;;;;;11.20;6.10;;;12.50;99.90;;;;;;10185376;29;20759;-94
2022/01/13 12:06:49;;;;;;;10.60;7.40;;;12.80;99.90;;;;;;10179253;29;20258;-94
2022/01/13 12:11:55;;;;;;;10.77;6.40;;;12.60;99.90;;;;;;10183382;29;20229;-94
2022/01/13 12:17:04;;;;;;;9.97;7.03;;;12.80;99.90;;;;;;10174459;29;20236;-93
2022/01/13 12:22:19;;;;;;;10.23;6.43;;;12.60;99.90;;;;;;10178993;29;20199;-94
2022/01/13 12:27:45;;;;;;;10.57;6.87;;;12.50;99.90;;;;;;10178356;29;20203;-94
2022/01/13 12:32:51;;;;;;;8.33;5.40;;;12.30;99.90;;;;;;10193938;29;20283;-94
2022/01/13 12:38:10;;;;;;;11.27;7.10;;;12.60;99.90;;;;;;10192280;29;20203;-93
2022/01/13 12:48:53;;;;;;;7.40;5.37;;;12.60;99.90;;;;;;10207763;29;20244;-93
2022/01/13 12:53:55;;;;;;;8.73;6.40;;;12.60;99.90;;;;;;9535893;28;10000709;-93
2022/01/13 12:59:06;;;;;;;10.43;6.63;;;12.40;99.90;;;;;;10187918;29;20275;-95
2022/01/13 13:04:13;;;;;;;9.07;6.20;;;12.40;99.90;;;;;;10201688;29;20203;-94
2022/01/13 13:09:22;;;;;;;13.50;8.67;;;12.50;99.90;;;;;;10201347;29;20209;-94
2022/01/13 13:15:40;;;;;;;8.17;5.77;;;12.30;99.90;;;;;;10200962;29;20227;-95
2022/01/13 13:20:04;;;;;;;9.17;6.03;;;12.40;99.90;;;;;;10216960;29;20644;-93
2022/01/13 13:25:07;;;;;;;8.37;6.47;;;12.60;99.90;;;;;;10199479;29;20244;-94
2022/01/13 13:30:10;;;;;;;10.53;6.43;;;12.40;99.90;;;;;;10201347;29;20217;-94
2022/01/13 13:35:33;;;;;;;9.67;6.50;;;12.70;99.90;;;;;;10193252;29;20241;-93
2022/01/13 13:40:42;;;;;;;9.97;5.90;;;12.70;99.90;;;;;;10184159;29;20651;-94
2022/01/13 13:45:45;;;;;;;9.57;6.33;;;12.40;99.90;;;;;;10177559;29;20287;-93
2022/01/13 13:50:47;;;;;;;10.40;7.07;;;12.30;99.90;;;;;;10197356;29;20739;-92
2022/01/13 13:56:02;;;;;;;12.50;7.67;;;12.50;99.90;;;;;;10172627;29;20230;-94
2022/01/13 14:01:07;;;;;;;8.47;6.43;;;12.20;99.90;;;;;;10182848;29;20214;-93
2022/01/13 14:06:10;;;;;;;10.03;6.73;;;12.60;99.90;;;;;;10180527;29;20231;-93
2022/01/13 14:11:13;;;;;;;13.27;8.10;;;12.20;99.90;;;;;;10178560;29;20305;-95
2022/01/13 14:16:33;;;;;;;10.07;6.67;;;11.90;99.90;;;;;;10180471;29;20204;-93
2022/01/13 14:21:53;;;;;;;12.17;8.27;;;12.30;99.90;;;;;;10186272;29;20264;-93
2022/01/13 14:27:13;;;;;;;19.23;10.17;;;12.40;99.90;;;;;;10196398;29;20228;-94
2022/01/13 14:32:25;;;;;;;9.27;6.43;;;12.30;99.90;;;;;;10210685;29;20674;-92
2022/01/13 14:37:28;;;;;;;12.03;7.67;;;12.60;99.90;;;;;;10194914;29;20303;-94
2022/01/13 14:42:31;;;;;;;15.03;7.40;;;12.50;99.90;;;;;;10195073;29;20212;-94
2022/01/13 14:47:33;;;;;;;16.37;8.50;;;12.40;99.90;;;;;;10211984;29;20247;-94
2022/01/13 14:52:36;;;;;;;11.97;7.70;;;12.40;99.90;;;;;;10210289;29;20303;-94
2022/01/13 14:57:38;;;;;;;12.90;9.00;;;12.40;99.90;;;;;;10206551;29;20224;-92
2022/01/13 15:02:48;;;;;;;14.10;8.23;;;12.40;99.90;;;;;;10184326;29;20239;-93
2022/01/13 15:07:50;;;;;;;14.47;8.67;;;12.40;99.90;;;;;;10182067;29;20759;-93
2022/01/13 15:12:53;;;;;;;13.00;9.27;;;12.30;99.90;;;;;;10175514;29;20326;-94
2022/01/13 15:17:55;;;;;;;30.87;16.43;;;12.20;99.90;;;;;;10206310;29;20211;-94
2022/01/13 15:22:58;;;;;;;30.90;16.60;;;10.60;99.90;;;;;;10211271;29;20243;-93
2022/01/13 15:28:01;;;;;;;30.57;16.10;;;11.40;99.90;;;;;;10178891;29;20247;-93
2022/01/13 15:33:04;;;;;;;26.23;14.87;;;11.80;99.90;;;;;;10211212;29;20226;-93
2022/01/13 15:38:06;;;;;;;26.80;15.73;;;12.10;99.90;;;;;;10193805;29;20203;-94
2022/01/13 15:43:09;;;;;;;30.27;15.10;;;12.10;99.90;;;;;;10211750;29;20222;-94
2022/01/13 15:48:12;;;;;;;28.80;14.80;;;12.30;99.90;;;;;;10194267;29;20210;-93
2022/01/13 15:53:14;;;;;;;25.10;14.63;;;12.40;99.90;;;;;;10176946;29;20312;-93
2022/01/13 15:58:17;;;;;;;23.67;14.20;;;12.40;99.90;;;;;;10193241;29;20231;-93
2022/01/13 16:03:20;;;;;;;22.97;13.57;;;12.40;99.90;;;;;;10191849;29;20239;-93
2022/01/13 16:08:22;;;;;;;24.23;14.10;;;12.40;99.90;;;;;;9527126;29;10000728;-93
2022/01/13 16:13:25;;;;;;;26.40;14.37;;;12.50;99.90;;;;;;10205344;29;20791;-91
2022/01/13 16:18:28;;;;;;;27.40;14.83;;;12.50;99.90;;;;;;10187723;29;20195;-92
2022/01/13 16:23:32;;;;;;;24.80;13.20;;;12.30;99.90;;;;;;10205166;29;20239;-92
2022/01/13 16:28:34;;;;;;;19.57;12.50;;;12.40;99.90;;;;;;10189209;29;20222;-92
2022/01/13 16:33:37;;;;;;;26.97;13.03;;;12.30;99.90;;;;;;10213099;29;20266;-92
2022/01/13 16:38:39;;;;;;;27.63;14.00;;;12.30;99.90;;;;;;10209964;29;20230;-91
2022/01/13 16:43:42;;;;;;;22.97;12.57;;;12.20;99.90;;;;;;10194228;29;20278;-92
2022/01/13 16:48:45;;;;;;;20.80;13.23;;;12.10;99.90;;;;;;10194907;29;20215;-92
2022/01/13 16:53:48;;;;;;;19.47;13.07;;;12.10;99.90;;;;;;10192892;29;20251;-91
2022/01/13 16:58:53;;;;;;;23.80;12.53;;;12.10;99.90;;;;;;10193450;29;20291;-92
2022/01/13 17:03:56;;;;;;;18.77;11.57;;;12.20;99.90;;;;;;10173309;29;20227;-92
2022/01/13 17:08:59;;;;;;;25.10;12.87;;;12.40;99.90;;;;;;10194526;29;20271;-93
2022/01/13 17:14:02;;;;;;;23.43;12.70;;;12.20;99.90;;;;;;10173632;29;20777;-93
2022/01/13 17:19:05;;;;;;;24.53;13.83;;;12.30;99.90;;;;;;10190390;29;20243;-92
2022/01/13 17:24:08;;;;;;;22.57;11.70;;;11.90;99.90;;;;;;10157525;29;20306;-92
2022/01/13 17:29:11;;;;;;;20.83;11.33;;;12.40;99.90;;;;;;10179875;29;20247;-92
2022/01/13 17:34:14;;;;;;;29.20;13.07;;;12.40;99.90;;;;;;10172296;29;20271;-93
2022/01/13 17:39:18;;;;;;;24.47;12.00;;;12.20;99.90;;;;;;10189060;29;20298;-92
2022/01/13 17:44:20;;;;;;;20.07;11.40;;;12.30;99.90;;;;;;10140573;29;20263;-92
2022/01/13 17:49:23;;;;;;;18.97;10.83;;;12.40;99.90;;;;;;10173678;29;20719;-92
2022/01/13 17:54:26;;;;;;;20.60;12.70;;;12.20;99.90;;;;;;10177474;29;20317;-91
2022/01/13 17:59:31;;;;;;;16.17;10.17;;;12.40;99.90;;;;;;10226661;28;20252;-90
2022/01/13 18:04:37;;;;;;;19.40;10.50;;;12.30;99.90;;;;;;10200711;29;20789;-92
2022/01/13 18:09:46;;;;;;;26.03;13.27;;;12.20;99.90;;;;;;10220370;28;20210;-94
2022/01/13 18:14:52;;;;;;;17.17;11.17;;;11.90;99.90;;;;;;10214155;29;20275;-92
2022/01/13 18:19:55;;;;;;;20.30;11.13;;;12.30;99.90;;;;;;10230857;29;20210;-93
2022/01/13 18:24:59;;;;;;;19.60;10.77;;;12.30;99.90;;;;;;10225543;29;20211;-92
2022/01/13 18:30:03;;;;;;;25.37;13.37;;;12.30;99.90;;;;;;10213230;29;20220;-92
2022/01/13 18:35:06;;;;;;;21.30;10.40;;;12.00;99.90;;;;;;10212308;29;20277;-92
2022/01/13 18:40:10;;;;;;;15.43;8.20;;;9.00;99.90;;;;;;10207794;29;20239;-92
2022/01/13 18:45:19;;;;;;;17.23;9.40;;;11.30;99.90;;;;;;10175812;29;20672;-93
2022/01/13 18:50:22;;;;;;;13.67;7.80;;;12.40;99.90;;;;;;10212348;29;20668;-93
2022/01/13 18:55:25;;;;;;;13.20;8.20;;;12.70;99.90;;;;;;10195781;29;20710;-92
2022/01/13 19:00:29;;;;;;;14.43;8.43;;;12.70;99.90;;;;;;10194790;29;20215;-92
2022/01/13 19:05:33;;;;;;;12.07;7.43;;;12.60;99.90;;;;;;10212529;29;20341;-91
2022/01/13 19:10:35;;;;;;;12.60;7.87;;;12.60;99.90;;;;;;10216367;29;20243;-92
2022/01/13 19:15:39;;;;;;;13.83;8.03;;;12.50;99.90;;;;;;10185567;29;20262;-92
2022/01/13 19:20:42;;;;;;;15.80;8.07;;;12.20;99.90;;;;;;10199978;29;20604;-92
2022/01/13 19:25:44;;;;;;;16.07;8.93;;;12.50;99.90;;;;;;10232340;29;20227;-90
2022/01/13 19:30:49;;;;;;;15.60;8.27;;;12.50;99.90;;;;;;10244635;29;20243;-89
2022/01/13 19:35:52;;;;;;;14.27;8.63;;;12.60;99.90;;;;;;10222526;29;20315;-92
2022/01/13 19:40:55;;;;;;;14.77;8.80;;;12.60;99.90;;;;;;10233901;28;20203;-94
2022/01/13 19:45:58;;;;;;;15.50;8.93;;;12.50;99.90;;;;;;10216911;28;20321;-90
2022/01/13 19:51:06;;;;;;;16.97;9.80;;;12.40;99.90;;;;;;10238154;29;20665;-90
2022/01/13 19:56:09;;;;;;;13.93;8.63;;;12.30;99.90;;;;;;10196535;29;20829;-89
2022/01/13 20:01:11;;;;;;;15.30;10.60;;;12.30;99.90;;;;;;10224257;29;20388;-89
2022/01/13 20:06:15;;;;;;;14.47;9.03;;;12.30;99.90;;;;;;10224511;29;20242;-89
2022/01/13 20:11:17;;;;;;;14.37;8.93;;;12.40;99.90;;;;;;10213399;29;20238;-90
2022/01/13 20:16:21;;;;;;;20.27;9.63;;;12.40;99.90;;;;;;10227874;29;20267;-90
2022/01/13 20:21:25;;;;;;;19.57;9.77;;;12.40;99.90;;;;;;10235197;28;20227;-90
2022/01/13 20:26:27;;;;;;;14.33;9.23;;;12.30;99.90;;;;;;10232340;29;20227;-89
2022/01/13 20:31:30;;;;;;;13.80;8.77;;;12.40;99.90;;;;;;10222136;29;20279;-89
2022/01/13 20:36:34;;;;;;;15.50;9.27;;;12.50;99.90;;;;;;10237933;28;20314;-89
2022/01/13 20:41:37;;;;;;;13.43;9.10;;;12.50;99.90;;;;;;10213980;29;20207;-89
2022/01/13 20:46:41;;;;;;;12.80;8.37;;;12.40;99.90;;;;;;10241794;28;20214;-89
2022/01/13 20:51:44;;;;;;;13.47;8.60;;;12.50;99.90;;;;;;10216556;28;20219;-90
2022/01/13 20:56:47;;;;;;;18.83;10.97;;;12.50;99.90;;;;;;10230868;29;20218;-90
2022/01/13 21:01:49;;;;;;;14.60;8.33;;;12.50;99.90;;;;;;10221679;29;20211;-90
2022/01/13 21:06:54;;;;;;;13.67;8.80;;;12.30;99.90;;;;;;10224540;29;20239;-89
2022/01/13 21:11:57;;;;;;;15.50;8.20;;;12.50;99.90;;;;;;10207626;29;20215;-89
2022/01/13 21:17:00;;;;;;;14.83;8.37;;;12.50;99.90;;;;;;10257186;28;20222;-89
2022/01/13 21:22:04;;;;;;;17.10;9.40;;;12.40;99.90;;;;;;10240149;29;20202;-88
2022/01/13 21:27:06;;;;;;;12.97;8.40;;;12.40;99.90;;;;;;10290608;28;20222;-89
2022/01/13 21:32:09;;;;;;;14.73;7.90;;;12.30;99.90;;;;;;9935792;28;10000368;-89
2022/01/13 21:37:11;;;;;;;15.60;8.43;;;12.30;99.90;;;;;;10284111;28;20219;-90
2022/01/13 21:42:19;;;;;;;14.53;8.93;;;12.30;99.90;;;;;;10277308;28;20227;-90
2022/01/13 21:47:22;;;;;;;13.97;8.07;;;12.30;99.90;;;;;;10271962;28;20199;-89
2022/01/13 21:52:25;;;;;;;17.20;9.47;;;12.40;99.90;;;;;;10261191;28;20266;-91
2022/01/13 21:57:28;;;;;;;14.87;8.27;;;12.40;99.90;;;;;;10260062;28;20207;-87
2022/01/13 22:02:30;;;;;;;12.50;7.73;;;12.40;99.90;;;;;;10245523;29;20235;-88
2022/01/13 22:07:33;;;;;;;13.70;8.67;;;12.40;99.90;;;;;;10245838;29;20196;-89
2022/01/13 22:12:35;;;;;;;12.03;7.33;;;12.40;99.90;;;;;;10259687;29;20215;-89
2022/01/13 22:17:38;;;;;;;15.17;8.50;;;12.20;99.90;;;;;;10260186;28;20191;-89
2022/01/13 22:22:42;;;;;;;15.63;8.20;;;12.10;99.90;;;;;;10243028;29;20208;-89
2022/01/13 22:27:45;;;;;;;13.67;8.63;;;12.10;99.90;;;;;;10234097;29;20195;-88
2022/01/13 22:32:47;;;;;;;13.00;8.93;;;12.10;99.90;;;;;;10262279;29;20187;-90
2022/01/13 22:37:49;;;;;;;13.17;7.67;;;12.20;99.90;;;;;;10259842;29;20195;-89
2022/01/13 22:42:52;;;;;;;10.00;6.40;;;12.10;99.90;;;;;;10239657;29;20191;-89
2022/01/13 22:47:55;;;;;;;14.80;8.33;;;12.30;99.90;;;;;;10240430;29;20227;-90
2022/01/13 22:52:57;;;;;;;13.93;7.67;;;12.10;99.90;;;;;;10227514;29;20208;-89
2022/01/13 22:58:00;;;;;;;13.30;8.03;;;12.30;99.90;;;;;;10217529;29;20290;-90
2022/01/13 23:03:02;;;;;;;13.30;7.83;;;12.20;99.10;;;;;;10185480;29;20211;-89
2022/01/13 23:08:05;;;;;;;9.37;6.93;;;12.20;99.90;;;;;;10200325;29;20278;-88
2022/01/13 23:13:09;;;;;;;13.20;7.83;;;12.30;99.90;;;;;;10200803;29;20716;-88
2022/01/13 23:23:33;;;;;;;10.20;6.53;;;12.10;99.90;;;;;;10215443;29;20236;-89
2022/01/13 23:28:35;;;;;;;9.43;6.30;;;12.20;99.90;;;;;;10212855;29;20219;-88
2022/01/13 23:33:38;;;;;;;11.17;7.03;;;12.30;99.90;;;;;;10198218;29;20259;-89
2022/01/13 23:38:40;;;;;;;13.20;7.27;;;12.20;99.90;;;;;;10197652;29;20231;-90
2022/01/13 23:43:44;;;;;;;12.27;8.10;;;11.90;99.90;;;;;;10209621;29;20288;-89
2022/01/13 23:48:47;;;;;;;12.63;7.43;;;12.10;99.90;;;;;;10208487;29;20290;-89
2022/01/13 23:53:52;;;;;;;12.63;6.67;;;11.90;99.90;;;;;;10152171;29;20256;-90
2022/01/13 23:58:54;;;;;;;11.00;6.77;;;11.90;99.90;;;;;;10169193;29;20248;-89
